createdAt,value
2018-05-06T00:00:59.476Z,52.23
2018-05-06T00:03:27.904Z,52.16
2018-05-06T00:05:56.374Z,52.21
2018-05-06T00:08:24.796Z,52.14
2018-05-06T00:10:53.213Z,52.97
2018-05-06T00:13:21.685Z,52.57
2018-05-06T00:15:50.105Z,52.71
2018-05-06T00:18:18.520Z,52.24
2018-05-06T00:20:46.996Z,52.23
2018-05-06T00:23:15.437Z,52.31
2018-05-06T00:25:43.868Z,52.43
2018-05-06T00:28:12.335Z,52.62
2018-05-06T00:30:40.752Z,53.06
2018-05-06T00:33:09.184Z,53.43
2018-05-06T00:35:37.660Z,53.72
2018-05-06T00:38:06.089Z,54.22
2018-05-06T00:40:34.535Z,54.51
2018-05-06T00:43:03.039Z,54.34
2018-05-06T00:45:31.455Z,52.59
2018-05-06T00:47:59.864Z,52.48
2018-05-06T00:50:28.316Z,53.22
2018-05-06T00:52:56.739Z,53.42
2018-05-06T00:55:25.165Z,53.66
2018-05-06T00:57:53.632Z,53.86
2018-05-06T01:00:22.070Z,53.70
2018-05-06T01:02:50.496Z,55.24
2018-05-06T01:05:18.981Z,54.84
2018-05-06T01:07:47.405Z,56.01
2018-05-06T01:10:15.819Z,55.29
2018-05-06T01:12:44.276Z,55.41
2018-05-06T01:15:12.696Z,56.25
2018-05-06T01:17:41.124Z,56.16
2018-05-06T01:20:09.601Z,56.65
2018-05-06T01:22:38.032Z,56.57
2018-05-06T01:25:06.472Z,58.20
2018-05-06T01:27:34.940Z,57.88
2018-05-06T01:30:03.430Z,58.22
2018-05-06T01:32:31.890Z,57.88
2018-05-06T01:35:00.362Z,59.52
2018-05-06T01:37:28.799Z,60.94
2018-05-06T01:39:57.257Z,59.55
2018-05-06T01:42:25.744Z,60.57
2018-05-06T01:44:54.171Z,59.58
2018-05-06T01:47:22.592Z,59.67
2018-05-06T01:49:51.082Z,59.73
2018-05-06T01:52:19.502Z,59.06
2018-05-06T01:54:47.935Z,58.71
2018-05-06T01:57:16.412Z,58.60
2018-05-06T01:59:44.836Z,58.70
2018-05-06T02:02:13.256Z,58.65
2018-05-06T02:04:41.731Z,58.77
2018-05-06T02:07:10.187Z,58.97
2018-05-06T02:09:38.633Z,59.04
2018-05-06T02:12:07.117Z,59.05
2018-05-06T02:14:35.549Z,58.87
2018-05-06T02:17:03.977Z,58.79
2018-05-06T02:19:32.469Z,58.56
2018-05-06T02:22:00.889Z,58.49
2018-05-06T02:24:29.297Z,58.37
2018-05-06T02:26:57.752Z,58.25
2018-05-06T02:29:26.164Z,58.13
2018-05-06T02:31:54.616Z,58.09
2018-05-06T02:34:23.104Z,58.19
2018-05-06T02:36:51.523Z,58.17
2018-05-06T02:39:19.956Z,57.92
2018-05-06T02:41:48.427Z,57.84
2018-05-06T02:44:16.860Z,57.71
2018-05-06T02:46:45.272Z,57.74
2018-05-06T02:49:13.768Z,57.65
2018-05-06T02:51:42.184Z,57.75
2018-05-06T02:54:10.930Z,57.73
2018-05-06T02:56:39.461Z,57.71
2018-05-06T02:59:07.897Z,57.88
2018-05-06T03:01:36.344Z,58.05
2018-05-06T03:04:04.810Z,58.43
2018-05-06T03:06:33.232Z,58.65
2018-05-06T03:09:01.670Z,58.97
2018-05-06T03:11:30.124Z,59.23
2018-05-06T03:13:58.562Z,59.59
2018-05-06T03:16:26.996Z,59.71
2018-05-06T03:18:55.456Z,59.89
2018-05-06T03:21:23.869Z,59.72
2018-05-06T03:23:52.297Z,59.59
2018-05-06T03:26:20.776Z,59.72
2018-05-06T03:28:49.188Z,59.83
2018-05-06T03:31:17.603Z,59.94
2018-05-06T03:33:46.073Z,59.89
2018-05-06T03:36:14.504Z,59.68
2018-05-06T03:38:42.964Z,59.88
2018-05-06T03:41:11.429Z,59.66
2018-05-06T03:43:39.885Z,59.80
2018-05-06T03:46:08.299Z,59.70
2018-05-06T03:48:36.783Z,59.94
2018-05-06T03:51:05.208Z,59.95
2018-05-06T03:53:33.640Z,60.24
2018-05-06T03:59:28.780Z,60.48
2018-05-06T04:04:57.065Z,60.70
2018-05-06T04:07:25.532Z,60.82
2018-05-06T04:09:53.968Z,61.09
2018-05-06T04:12:22.391Z,60.96
2018-05-06T04:14:50.866Z,60.66
2018-05-06T04:17:19.308Z,60.73
2018-05-06T04:19:47.716Z,60.66
2018-05-06T04:22:16.163Z,60.70
2018-05-06T04:24:44.585Z,60.59
2018-05-06T04:27:13.041Z,60.74
2018-05-06T04:29:41.532Z,60.63
2018-05-06T04:32:09.943Z,60.60
2018-05-06T04:34:38.356Z,60.52
2018-05-06T04:37:06.815Z,60.49
2018-05-06T04:39:35.244Z,60.42
2018-05-06T04:42:03.681Z,60.45
2018-05-06T04:44:32.144Z,60.55
2018-05-06T04:47:00.572Z,60.49
2018-05-06T04:49:28.993Z,60.21
2018-05-06T04:51:57.457Z,60.06
2018-05-06T04:54:25.871Z,59.79
2018-05-06T04:56:54.280Z,59.84
2018-05-06T04:59:22.732Z,59.65
2018-05-06T05:01:51.139Z,59.64
2018-05-06T05:04:19.554Z,59.65
2018-05-06T05:06:48.004Z,59.31
2018-05-06T05:09:16.429Z,59.10
2018-05-06T05:11:44.848Z,58.72
2018-05-06T05:14:13.317Z,58.27
2018-05-06T05:16:41.736Z,58.15
2018-05-06T05:19:10.161Z,57.70
2018-05-06T05:21:38.721Z,57.42
2018-05-06T05:24:07.143Z,57.67
2018-05-06T05:26:35.588Z,57.37
2018-05-06T05:29:04.112Z,57.10
2018-05-06T05:31:32.524Z,57.01
2018-05-06T05:34:00.965Z,56.76
2018-05-06T05:36:29.416Z,56.68
2018-05-06T05:38:57.852Z,56.52
2018-05-06T05:41:26.272Z,56.71
2018-05-06T05:43:54.747Z,56.37
2018-05-06T05:46:23.173Z,56.19
2018-05-06T05:48:51.580Z,56.31
2018-05-06T05:51:20.032Z,56.10
2018-05-06T05:53:48.464Z,55.57
2018-05-06T05:56:16.881Z,55.65
2018-05-06T05:58:45.348Z,55.78
2018-05-06T06:01:13.764Z,55.56
2018-05-06T06:03:42.196Z,55.92
2018-05-06T06:06:10.676Z,55.36
2018-05-06T06:08:39.108Z,54.97
2018-05-06T06:11:07.536Z,54.78
2018-05-06T06:13:35.992Z,55.13
2018-05-06T06:16:04.420Z,54.47
2018-05-06T06:18:32.851Z,53.94
2018-05-06T06:21:01.336Z,54.33
2018-05-06T06:23:29.753Z,54.11
2018-05-06T06:25:58.174Z,53.67
2018-05-06T06:28:26.639Z,53.27
2018-05-06T06:30:55.053Z,54.00
2018-05-06T06:33:23.512Z,54.31
2018-05-06T06:35:51.977Z,53.45
2018-05-06T06:38:20.450Z,54.23
2018-05-06T06:40:48.878Z,53.58
2018-05-06T06:43:17.331Z,53.42
2018-05-06T06:45:45.755Z,52.93
2018-05-06T06:48:14.168Z,53.33
2018-05-06T06:50:42.648Z,53.57
2018-05-06T06:53:11.064Z,53.69
2018-05-06T06:55:39.564Z,53.65
2018-05-06T06:58:08.008Z,53.01
2018-05-06T07:00:36.439Z,53.94
2018-05-06T07:03:05.382Z,54.40
2018-05-06T07:05:33.836Z,53.49
2018-05-06T07:08:02.248Z,52.98
2018-05-06T07:10:30.665Z,53.06
2018-05-06T07:12:59.156Z,53.11
2018-05-06T07:15:27.569Z,53.39
2018-05-06T07:17:55.988Z,52.62
2018-05-06T07:20:24.433Z,52.49
2018-05-06T07:22:52.864Z,51.91
2018-05-06T07:25:21.276Z,52.38
2018-05-06T07:27:49.737Z,52.57
2018-05-06T07:30:18.169Z,52.66
2018-05-06T07:32:46.600Z,52.43
2018-05-06T07:35:15.065Z,52.76
2018-05-06T07:37:43.498Z,51.46
2018-05-06T07:40:11.913Z,51.61
2018-05-06T07:42:40.402Z,50.76
2018-05-06T07:45:08.816Z,51.36
2018-05-06T07:47:37.236Z,50.88
2018-05-06T07:50:05.747Z,51.05
2018-05-06T07:52:34.167Z,50.87
2018-05-06T07:55:02.584Z,51.56
2018-05-06T07:57:31.040Z,51.06
2018-05-06T07:59:59.476Z,50.49
2018-05-06T08:02:27.908Z,51.15
2018-05-06T08:04:56.380Z,51.17
2018-05-06T08:07:24.825Z,51.13
2018-05-06T08:09:53.258Z,51.13
2018-05-06T08:12:21.730Z,51.42
2018-05-06T08:14:50.144Z,51.91
2018-05-06T08:17:18.592Z,49.47
2018-05-06T08:19:47.085Z,51.86
2018-05-06T08:22:15.498Z,49.11
2018-05-06T08:24:43.919Z,48.58
2018-05-06T08:27:12.386Z,48.01
2018-05-06T08:29:40.837Z,47.73
2018-05-06T08:32:09.250Z,48.01
2018-05-06T08:34:37.719Z,49.30
2018-05-06T08:37:06.148Z,47.50
2018-05-06T08:39:34.564Z,47.24
2018-05-06T08:42:03.024Z,47.86
2018-05-06T08:44:31.448Z,46.14
2018-05-06T08:46:59.878Z,46.39
2018-05-06T08:49:28.342Z,46.58
2018-05-06T08:51:56.759Z,45.45
2018-05-06T08:54:25.205Z,45.57
2018-05-06T08:56:53.929Z,45.57
2018-05-06T08:59:22.364Z,45.99
2018-05-06T09:01:50.788Z,45.24
2018-05-06T09:04:19.288Z,44.75
2018-05-06T09:06:47.708Z,44.01
2018-05-06T09:09:16.126Z,44.09
2018-05-06T09:11:44.583Z,44.08
2018-05-06T09:14:13.015Z,42.63
2018-05-06T09:16:41.430Z,43.06
2018-05-06T09:19:09.884Z,43.61
2018-05-06T09:21:38.299Z,43.14
2018-05-06T09:24:06.725Z,43.77
2018-05-06T09:26:35.187Z,43.53
2018-05-06T09:29:03.633Z,44.17
2018-05-06T09:31:32.040Z,43.38
2018-05-06T09:34:00.529Z,44.58
2018-05-06T09:36:28.944Z,43.27
2018-05-06T09:38:57.368Z,44.12
2018-05-06T09:41:25.837Z,43.01
2018-05-06T09:43:54.255Z,44.14
2018-05-06T09:46:22.675Z,43.06
2018-05-06T09:48:51.327Z,42.81
2018-05-06T09:51:19.764Z,42.56
2018-05-06T09:53:48.254Z,43.16
2018-05-06T09:56:17.879Z,41.64
2018-05-06T09:58:46.306Z,42.12
2018-05-06T10:01:14.724Z,42.65
2018-05-06T10:03:43.216Z,42.33
2018-05-06T10:06:11.628Z,41.50
2018-05-06T10:08:40.051Z,41.46
2018-05-06T10:11:08.540Z,40.71
2018-05-06T10:13:36.952Z,40.60
2018-05-06T10:16:05.390Z,40.47
2018-05-06T10:18:33.881Z,40.53
2018-05-06T10:21:02.353Z,40.35
2018-05-06T10:23:30.773Z,38.98
2018-05-06T10:25:59.232Z,40.62
2018-05-06T10:28:27.657Z,39.01
2018-05-06T10:30:56.084Z,39.93
2018-05-06T10:33:24.574Z,39.37
2018-05-06T10:35:52.988Z,38.89
2018-05-06T10:38:21.462Z,38.76
2018-05-06T10:40:50.313Z,38.22
2018-05-06T10:43:18.730Z,38.41
2018-05-06T10:45:47.188Z,37.92
2018-05-06T10:48:15.648Z,37.62
2018-05-06T10:50:44.070Z,38.57
2018-05-06T10:53:12.492Z,38.59
2018-05-06T10:55:40.972Z,38.26
2018-05-06T10:58:09.381Z,37.78
2018-05-06T11:00:37.793Z,38.92
2018-05-06T11:03:06.276Z,38.42
2018-05-06T11:05:34.693Z,38.41
2018-05-06T11:08:03.134Z,37.30
2018-05-06T11:10:31.638Z,38.13
2018-05-06T11:13:00.053Z,37.32
2018-05-06T11:15:28.495Z,38.66
2018-05-06T11:17:56.964Z,38.11
2018-05-06T11:20:25.416Z,37.70
2018-05-06T11:22:53.853Z,38.54
2018-05-06T11:25:22.341Z,37.30
2018-05-06T11:27:50.787Z,37.96
2018-05-06T11:30:19.211Z,38.09
2018-05-06T11:32:47.713Z,38.49
2018-05-06T11:35:16.173Z,37.20
2018-05-06T11:37:44.588Z,38.71
2018-05-06T11:40:13.051Z,38.64
2018-05-06T11:42:41.469Z,37.48
2018-05-06T11:45:09.908Z,37.60
2018-05-06T11:47:38.388Z,37.74
2018-05-06T11:50:06.811Z,37.54
2018-05-06T11:52:35.220Z,36.54
2018-05-06T11:55:03.695Z,39.19
2018-05-06T11:57:32.114Z,37.88
2018-05-06T12:00:00.532Z,37.98
2018-05-06T12:02:29.077Z,38.31
2018-05-06T12:04:57.500Z,37.09
2018-05-06T12:07:25.921Z,37.09
2018-05-06T12:09:54.472Z,36.87
2018-05-06T12:12:22.857Z,36.29
2018-05-06T12:14:51.276Z,34.85
2018-05-06T12:17:19.760Z,33.58
2018-05-06T12:19:48.180Z,35.62
2018-05-06T12:22:16.599Z,34.85
2018-05-06T12:24:45.077Z,35.27
2018-05-06T12:27:13.627Z,35.76
2018-05-06T12:29:42.054Z,35.95
2018-05-06T12:32:10.547Z,34.98
2018-05-06T12:34:38.976Z,35.26
2018-05-06T12:37:07.405Z,35.80
2018-05-06T12:39:35.872Z,35.68
2018-05-06T12:42:04.320Z,35.56
2018-05-06T12:44:32.745Z,35.14
2018-05-06T12:47:01.235Z,36.20
2018-05-06T12:49:29.731Z,36.59
2018-05-06T12:51:58.128Z,35.45
2018-05-06T12:54:26.608Z,36.07
2018-05-06T12:56:55.036Z,36.25
2018-05-06T12:59:23.456Z,35.59
2018-05-06T13:01:51.919Z,36.13
2018-05-06T13:04:20.338Z,34.68
2018-05-06T13:06:48.775Z,35.14
2018-05-06T13:09:17.252Z,35.80
2018-05-06T13:11:45.695Z,35.70
2018-05-06T13:14:14.140Z,36.32
2018-05-06T13:16:42.663Z,36.09
2018-05-06T13:19:11.052Z,35.84
2018-05-06T13:21:39.466Z,36.59
2018-05-06T13:24:08.020Z,36.73
2018-05-06T13:26:36.428Z,36.06
2018-05-06T13:29:04.881Z,36.83
2018-05-06T13:31:33.383Z,36.55
2018-05-06T13:34:01.846Z,36.72
2018-05-06T13:36:30.290Z,36.22
2018-05-06T13:38:58.800Z,36.88
2018-05-06T13:41:27.273Z,36.35
2018-05-06T13:43:55.776Z,37.82
2018-05-06T13:46:24.249Z,37.29
2018-05-06T13:48:52.678Z,37.32
2018-05-06T13:51:21.136Z,36.97
2018-05-06T13:53:49.628Z,36.93
2018-05-06T13:56:18.052Z,37.12
2018-05-06T13:58:46.524Z,37.48
2018-05-06T14:01:14.976Z,38.29
2018-05-06T14:03:43.393Z,38.01
2018-05-06T14:06:11.853Z,37.96
2018-05-06T14:08:40.315Z,37.69
2018-05-06T14:11:08.740Z,37.70
2018-05-06T14:13:37.165Z,38.21
2018-05-06T14:16:05.621Z,36.99
2018-05-06T14:18:34.078Z,36.94
2018-05-06T14:21:02.823Z,38.33
2018-05-06T14:23:31.302Z,38.62
2018-05-06T14:25:59.787Z,38.49
2018-05-06T14:28:28.225Z,37.89
2018-05-06T14:30:56.722Z,38.45
2018-05-06T14:33:25.154Z,38.87
2018-05-06T14:35:53.573Z,39.02
2018-05-06T14:38:22.036Z,38.93
2018-05-06T14:40:50.500Z,39.76
2018-05-06T14:43:18.923Z,39.44
2018-05-06T14:45:47.421Z,39.80
2018-05-06T14:48:15.894Z,39.79
2018-05-06T14:50:44.305Z,39.86
2018-05-06T14:53:12.800Z,39.74
2018-05-06T14:55:41.225Z,41.13
2018-05-06T14:58:09.672Z,40.39
2018-05-06T15:00:38.156Z,40.14
2018-05-06T15:03:06.613Z,40.95
2018-05-06T15:05:35.040Z,40.96
2018-05-06T15:08:03.520Z,40.42
2018-05-06T15:10:32.069Z,41.17
2018-05-06T15:13:00.429Z,40.96
2018-05-06T15:15:28.899Z,41.20
2018-05-06T15:17:57.317Z,41.53
2018-05-06T15:20:25.737Z,40.82
2018-05-06T15:22:54.210Z,41.82
2018-05-06T15:25:22.641Z,41.86
2018-05-06T15:27:51.065Z,41.48
2018-05-06T15:30:19.520Z,41.67
2018-05-06T15:32:47.956Z,41.63
2018-05-06T15:35:16.396Z,41.39
2018-05-06T15:37:44.886Z,42.34
2018-05-06T15:40:13.312Z,42.44
2018-05-06T15:42:41.733Z,42.24
2018-05-06T15:45:10.217Z,42.17
2018-05-06T15:47:38.656Z,41.68
2018-05-06T15:50:07.429Z,42.32
2018-05-06T15:52:35.965Z,42.18
2018-05-06T15:55:04.348Z,42.93
2018-05-06T15:57:32.796Z,42.83
2018-05-06T16:00:01.337Z,42.57
2018-05-06T16:05:30.554Z,42.24
2018-05-06T16:07:58.968Z,42.62
2018-05-06T16:10:27.384Z,42.44
2018-05-06T16:12:55.852Z,42.19
2018-05-06T16:15:24.316Z,42.59
2018-05-06T16:17:52.761Z,42.44
2018-05-06T16:20:21.213Z,41.23
2018-05-06T16:22:49.643Z,42.65
2018-05-06T16:25:18.072Z,43.31
2018-05-06T16:27:46.532Z,42.71
2018-05-06T16:30:14.958Z,42.95
2018-05-06T16:32:43.388Z,43.38
2018-05-06T16:35:11.865Z,43.28
2018-05-06T16:37:40.289Z,42.94
2018-05-06T16:40:08.729Z,42.84
2018-05-06T16:42:37.232Z,43.21
2018-05-06T16:45:05.721Z,43.62
2018-05-06T16:47:34.160Z,43.58
2018-05-06T16:50:02.641Z,43.61
2018-05-06T16:52:31.105Z,44.23
2018-05-06T16:54:59.545Z,44.32
2018-05-06T16:57:28.139Z,43.95
2018-05-06T16:59:56.505Z,43.68
2018-05-06T17:02:24.960Z,44.18
2018-05-06T17:04:53.484Z,43.91
2018-05-06T17:07:21.917Z,43.66
2018-05-06T17:09:50.351Z,43.95
2018-05-06T17:12:18.816Z,44.05
2018-05-06T17:14:47.235Z,44.52
2018-05-06T17:17:15.672Z,44.69
2018-05-06T17:19:44.197Z,44.61
2018-05-06T17:22:12.646Z,44.36
2018-05-06T17:24:41.074Z,44.34
2018-05-06T17:27:09.529Z,44.56
2018-05-06T17:29:37.952Z,44.66
2018-05-06T17:32:06.406Z,45.12
2018-05-06T17:34:34.872Z,45.77
2018-05-06T17:37:03.304Z,46.06
2018-05-06T17:39:31.752Z,46.21
2018-05-06T17:42:00.269Z,46.04
2018-05-06T17:44:28.699Z,46.63
2018-05-06T17:46:57.164Z,46.34
2018-05-06T17:49:25.636Z,45.74
2018-05-06T17:51:54.064Z,45.75
2018-05-06T17:54:22.509Z,45.86
2018-05-06T17:56:51.012Z,46.15
2018-05-06T17:59:19.468Z,45.78
2018-05-06T18:01:47.908Z,45.87
2018-05-06T18:04:16.420Z,46.16
2018-05-06T18:06:44.838Z,46.44
2018-05-06T18:09:13.268Z,46.49
2018-05-06T18:11:41.736Z,46.45
2018-05-06T18:14:10.156Z,46.57
2018-05-06T18:16:38.608Z,46.78
2018-05-06T18:19:07.117Z,46.68
2018-05-06T18:21:35.554Z,46.54
2018-05-06T18:24:04.000Z,46.11
2018-05-06T18:26:32.479Z,46.40
2018-05-06T18:29:00.919Z,46.10
2018-05-06T18:31:29.362Z,46.25
2018-05-06T18:33:57.857Z,46.42
2018-05-06T18:36:26.327Z,46.38
2018-05-06T18:38:55.931Z,46.36
2018-05-06T18:41:24.412Z,46.61
2018-05-06T18:43:52.832Z,46.68
2018-05-06T18:46:21.313Z,47.05
2018-05-06T18:48:49.773Z,47.05
2018-05-06T18:51:18.526Z,47.34
2018-05-06T18:53:46.933Z,47.38
2018-05-06T18:56:15.409Z,47.60
2018-05-06T18:58:43.828Z,47.71
2018-05-06T19:01:12.258Z,47.97
2018-05-06T19:03:40.725Z,48.19
2018-05-06T19:06:09.142Z,48.13
2018-05-06T19:08:37.581Z,48.17
2018-05-06T19:11:06.067Z,48.00
2018-05-06T19:13:34.506Z,48.07
2018-05-06T19:16:02.932Z,48.20
2018-05-06T19:18:31.396Z,48.34
2018-05-06T19:20:59.845Z,48.40
2018-05-06T19:23:28.268Z,48.39
2018-05-06T19:25:56.729Z,48.60
2018-05-06T19:28:26.114Z,48.50
2018-05-06T19:30:55.614Z,48.65
2018-05-06T19:33:24.096Z,48.69
2018-05-06T19:35:52.540Z,48.82
2018-05-06T19:38:20.956Z,48.95
2018-05-06T19:40:49.458Z,48.89
2018-05-06T19:43:17.875Z,49.08
2018-05-06T19:45:46.280Z,49.20
2018-05-06T19:48:14.733Z,49.39
2018-05-06T19:50:43.148Z,49.70
2018-05-06T19:53:11.578Z,50.15
2018-05-06T19:55:40.035Z,50.40
2018-05-06T19:58:08.512Z,50.42
2018-05-06T20:00:36.999Z,50.98
2018-05-06T20:03:05.476Z,50.89
2018-05-06T20:05:33.922Z,51.02
2018-05-06T20:08:02.344Z,50.95
2018-05-06T20:10:30.812Z,50.94
2018-05-06T20:12:59.300Z,50.91
2018-05-06T20:15:28.061Z,50.79
2018-05-06T20:17:56.533Z,50.94
2018-05-06T20:20:24.949Z,51.05
2018-05-06T20:22:53.396Z,51.02
2018-05-06T20:25:21.915Z,51.14
2018-05-06T20:27:50.332Z,51.29
2018-05-06T20:30:18.740Z,51.43
2018-05-06T20:32:47.212Z,51.57
2018-05-06T20:35:15.641Z,51.57
2018-05-06T20:37:44.069Z,51.59
2018-05-06T20:40:12.524Z,51.93
2018-05-06T20:42:40.935Z,51.78
2018-05-06T20:45:09.353Z,51.93
2018-05-06T20:47:37.815Z,52.00
2018-05-06T20:50:06.232Z,52.24
2018-05-06T20:52:34.650Z,52.27
2018-05-06T20:55:03.132Z,52.46
2018-05-06T20:57:31.554Z,52.76
2018-05-06T21:00:00.035Z,52.99
2018-05-06T21:02:28.504Z,53.00
2018-05-06T21:04:56.921Z,53.38
2018-05-06T21:07:25.348Z,53.38
2018-05-06T21:09:53.828Z,53.56
2018-05-06T21:12:22.246Z,53.74
2018-05-06T21:14:50.672Z,53.74
2018-05-06T21:17:19.131Z,53.76
2018-05-06T21:19:47.553Z,53.94
2018-05-06T21:22:15.970Z,53.99
2018-05-06T21:24:44.430Z,54.10
2018-05-06T21:27:12.880Z,54.30
2018-05-06T21:29:41.330Z,54.50
2018-05-06T21:32:09.829Z,54.78
2018-05-06T21:34:38.256Z,54.75
2018-05-06T21:37:06.765Z,54.91
2018-05-06T21:39:35.193Z,55.13
2018-05-06T21:42:03.613Z,55.19
2018-05-06T21:44:32.028Z,55.40
2018-05-06T21:47:00.517Z,55.52
2018-05-06T21:49:28.936Z,55.67
2018-05-06T21:51:57.352Z,55.91
2018-05-06T21:54:25.846Z,56.05
2018-05-06T21:56:54.254Z,56.20
2018-05-06T21:59:22.672Z,56.57
2018-05-06T22:01:51.160Z,56.77
2018-05-06T22:04:19.578Z,56.96
2018-05-06T22:06:48.029Z,57.25
2018-05-06T22:09:16.505Z,57.46
2018-05-06T22:11:44.938Z,57.71
2018-05-06T22:14:13.366Z,57.85
2018-05-06T22:16:41.870Z,57.85
2018-05-06T22:19:10.293Z,57.79
2018-05-06T22:21:38.705Z,57.87
2018-05-06T22:24:07.182Z,57.96
2018-05-06T22:26:35.600Z,58.23
2018-05-06T22:29:04.016Z,58.42
2018-05-06T22:31:32.582Z,58.65
2018-05-06T22:34:00.944Z,58.65
2018-05-06T22:36:29.361Z,58.91
2018-05-06T22:38:57.816Z,59.05
2018-05-06T22:41:26.312Z,59.32
2018-05-06T22:43:54.676Z,59.39
2018-05-06T22:46:23.136Z,59.41
2018-05-06T22:48:51.553Z,59.53
2018-05-06T22:51:19.971Z,59.76
2018-05-06T22:53:48.440Z,59.72
2018-05-06T22:56:16.868Z,59.66
2018-05-06T22:58:45.285Z,59.70
2018-05-06T23:01:13.751Z,60.00
2018-05-06T23:03:42.168Z,59.85
2018-05-06T23:06:10.594Z,59.69
2018-05-06T23:08:39.057Z,59.69
2018-05-06T23:11:07.568Z,59.66
2018-05-06T23:13:35.932Z,59.94
2018-05-06T23:16:04.452Z,60.25
2018-05-06T23:18:32.874Z,60.31
2018-05-06T23:21:01.321Z,60.19
2018-05-06T23:23:29.786Z,60.44
2018-05-06T23:25:58.213Z,60.49
2018-05-06T23:28:26.626Z,60.36
2018-05-06T23:30:55.077Z,60.41
2018-05-06T23:33:23.482Z,60.38
2018-05-06T23:35:51.912Z,60.56
2018-05-06T23:38:20.385Z,60.21
2018-05-06T23:40:48.813Z,60.39
2018-05-06T23:43:17.284Z,60.46
2018-05-06T23:45:45.714Z,60.66
2018-05-06T23:48:14.137Z,61.42
2018-05-06T23:50:42.548Z,62.00
2018-05-06T23:53:11.022Z,62.33
2018-05-06T23:55:39.516Z,62.87
2018-05-06T23:58:07.946Z,62.49
